TimeEST,TemperatureF,Dew PointF,Humidity,Sea Level PressureIn,VisibilityMPH,Wind Direction,Wind SpeedMPH,Gust SpeedMPH,PrecipitationIn,Events,Conditions,WindDirDegrees,DateUTC
12:53 AM,39.9,37.9,93,29.99,4.0,NNE,8.1,-,0.01,Rain,Light Rain,20,2012-12-10 05:53:00
1:53 AM,39.9,37.9,93,29.96,4.0,NNE,6.9,-,0.03,Rain,Light Rain,30,2012-12-10 06:53:00
2:53 AM,39.9,37.9,93,29.92,3.0,NNE,5.8,-,0.01,,Overcast,30,2012-12-10 07:53:00
3:53 AM,39.9,37.9,93,29.88,5.0,ENE,3.5,-,N/A,,Overcast,60,2012-12-10 08:53:00
4:12 AM,39.2,37.4,93,29.86,2.5,NE,3.5,-,N/A,,Overcast,40,2012-12-10 09:12:00
4:53 AM,39.9,37.9,93,29.85,2.5,Calm,Calm,-,N/A,,Overcast,0,2012-12-10 09:53:00
5:53 AM,39.9,37.9,93,29.82,1.8,Calm,Calm,-,N/A,,Overcast,0,2012-12-10 10:53:00
6:12 AM,39.2,37.4,93,29.81,2.0,Calm,Calm,-,N/A,,Overcast,0,2012-12-10 11:12:00
6:42 AM,39.2,37.4,93,29.80,2.0,Calm,Calm,-,N/A,,Overcast,0,2012-12-10 11:42:00
6:53 AM,39.0,37.9,96,29.81,2.0,Calm,Calm,-,N/A,,Overcast,0,2012-12-10 11:53:00
7:11 AM,39.2,37.4,93,29.80,1.8,Calm,Calm,-,N/A,,Overcast,0,2012-12-10 12:11:00
7:25 AM,39.2,37.4,93,29.80,1.0,Calm,Calm,-,N/A,,Overcast,0,2012-12-10 12:25:00
7:42 AM,39.2,37.4,93,29.79,0.5,Calm,Calm,-,N/A,Fog,Fog,0,2012-12-10 12:42:00
7:53 AM,39.0,37.9,96,29.79,0.8,Calm,Calm,-,0.01,,Overcast,0,2012-12-10 12:53:00
8:15 AM,39.2,37.4,93,29.78,1.0,Calm,Calm,-,N/A,,Overcast,0,2012-12-10 13:15:00
8:50 AM,39.2,39.2,100,29.77,0.8,Calm,Calm,-,N/A,,Overcast,0,2012-12-10 13:50:00
8:53 AM,39.9,39.0,97,29.78,1.0,Calm,Calm,-,N/A,,Overcast,0,2012-12-10 13:53:00
9:53 AM,41.0,39.9,96,29.77,1.2,SW,4.6,-,N/A,,Overcast,220,2012-12-10 14:53:00
10:49 AM,44.6,42.8,93,29.73,0.8,Calm,Calm,-,N/A,,Overcast,0,2012-12-10 15:49:00
10:53 AM,44.1,43.0,96,29.73,0.8,WSW,3.5,-,N/A,,Overcast,240,2012-12-10 15:53:00
11:28 AM,46.4,44.6,93,29.70,1.0,SW,4.6,-,N/A,,Overcast,230,2012-12-10 16:28:00
11:53 AM,46.9,46.0,97,29.69,1.2,SW,6.9,-,N/A,,Overcast,220,2012-12-10 16:53:00
12:16 PM,48.2,46.4,93,29.66,2.0,SW,6.9,-,N/A,,Overcast,220,2012-12-10 17:16:00
12:27 PM,48.2,46.4,93,29.66,4.0,SW,4.6,-,N/A,,Overcast,230,2012-12-10 17:27:00
12:36 PM,48.2,46.4,93,29.65,4.0,SW,5.8,-,N/A,,Overcast,230,2012-12-10 17:36:00
12:53 PM,50.0,48.0,93,29.65,3.0,SW,4.6,-,N/A,,Overcast,230,2012-12-10 17:53:00
1:29 PM,50.0,48.2,94,29.64,1.8,Variable,3.5,-,N/A,,Overcast,0,2012-12-10 18:29:00
1:44 PM,50.0,48.2,94,29.63,1.8,South,4.6,-,N/A,,Overcast,170,2012-12-10 18:44:00
1:53 PM,50.0,48.9,96,29.63,2.0,SSW,5.8,-,N/A,,Overcast,210,2012-12-10 18:53:00
2:02 PM,50.0,48.2,94,29.62,4.0,SSW,5.8,-,N/A,,Overcast,210,2012-12-10 19:02:00
2:53 PM,51.1,48.9,92,29.61,5.0,SW,6.9,-,N/A,,Overcast,220,2012-12-10 19:53:00
3:44 PM,51.8,50.0,94,29.60,2.5,SW,4.6,-,N/A,,Overcast,230,2012-12-10 20:44:00
3:53 PM,51.1,50.0,96,29.61,2.0,SW,5.8,-,N/A,,Overcast,230,2012-12-10 20:53:00
4:36 PM,51.8,48.2,88,29.59,3.0,SSW,4.6,-,N/A,,Overcast,210,2012-12-10 21:36:00
4:53 PM,50.0,48.9,96,29.59,1.8,SSW,3.5,-,N/A,,Overcast,210,2012-12-10 21:53:00
5:22 PM,50.0,48.2,94,29.57,1.2,South,3.5,-,N/A,,Overcast,190,2012-12-10 22:22:00
5:45 PM,50.0,48.2,94,29.57,0.8,Calm,Calm,-,N/A,,Overcast,0,2012-12-10 22:45:00
5:53 PM,50.0,48.9,96,29.58,0.8,Calm,Calm,-,N/A,,Overcast,0,2012-12-10 22:53:00
6:53 PM,50.0,48.9,96,29.58,0.5,SW,3.5,-,N/A,Fog,Fog,220,2012-12-10 23:53:00
7:36 PM,50.0,48.2,94,29.57,1.5,SSW,5.8,-,N/A,,Overcast,210,2012-12-11 00:36:00
7:45 PM,50.0,48.2,94,29.57,2.0,SW,5.8,-,N/A,,Overcast,220,2012-12-11 00:45:00
7:53 PM,50.0,48.9,96,29.57,2.0,SSW,4.6,-,N/A,,Overcast,210,2012-12-11 00:53:00
8:20 PM,50.0,48.2,94,29.57,1.5,SSW,4.6,-,N/A,,Overcast,210,2012-12-11 01:20:00
8:31 PM,50.0,48.2,94,29.55,1.2,SSW,5.8,-,N/A,,Overcast,210,2012-12-11 01:31:00
8:46 PM,50.0,48.2,94,29.54,0.8,SSW,4.6,-,N/A,,Overcast,210,2012-12-11 01:46:00
8:53 PM,50.0,48.9,96,29.55,0.5,SSW,4.6,-,N/A,Fog,Fog,210,2012-12-11 01:53:00
9:28 PM,50.0,48.2,94,29.56,1.2,Calm,Calm,-,N/A,,Overcast,0,2012-12-11 02:28:00
9:35 PM,50.0,50.0,100,29.56,2.0,SSW,4.6,-,N/A,,Overcast,210,2012-12-11 02:35:00
9:53 PM,50.0,50.0,100,29.56,2.0,South,4.6,-,N/A,,Overcast,190,2012-12-11 02:53:00
10:01 PM,50.0,48.2,94,29.56,1.2,SSW,5.8,-,N/A,,Overcast,210,2012-12-11 03:01:00
10:18 PM,50.0,48.2,94,29.57,0.8,SW,4.6,-,N/A,,Overcast,230,2012-12-11 03:18:00
10:28 PM,46.4,44.6,93,29.59,1.8,NNW,16.1,24.2,N/A,,Overcast,330,2012-12-11 03:28:00
10:30 PM,46.4,42.8,87,29.60,4.0,NW,15.0,24.2,N/A,,Overcast,310,2012-12-11 03:30:00
10:40 PM,44.6,42.8,93,29.61,10.0,Variable,5.8,18.4,N/A,,Overcast,0,2012-12-11 03:40:00
10:53 PM,46.0,41.0,83,29.62,10.0,North,8.1,-,N/A,,Overcast,360,2012-12-11 03:53:00
11:49 PM,46.4,37.4,71,29.65,10.0,Variable,3.5,-,N/A,,Overcast,0,2012-12-11 04:49:00
11:53 PM,46.0,37.9,73,29.66,10.0,North,3.5,-,N/A,,Overcast,360,2012-12-11 04:53:00